createdAt,value
2022-10-05T00:02:22.045Z,100287.34
2022-10-05T00:04:51.983Z,100287.59
2022-10-05T00:07:21.268Z,100296.44
2022-10-05T00:09:59.305Z,100292.84
2022-10-05T00:12:28.351Z,100288.06
2022-10-05T00:14:59.595Z,100293.28
2022-10-05T00:17:28.865Z,100281.56
2022-10-05T00:19:56.754Z,100280.78
2022-10-05T00:22:32.564Z,100280.75
2022-10-05T00:25:11.321Z,100272.63
2022-10-05T00:27:38.127Z,100279.72
2022-10-05T00:30:13.888Z,100267.94
2022-10-05T00:32:42.916Z,100274.75
2022-10-05T00:35:11.337Z,100275.72
2022-10-05T00:37:38.784Z,100263.63
2022-10-05T00:40:28.719Z,100265.25
2022-10-05T00:43:22.851Z,100266.81
2022-10-05T00:46:03.065Z,100262.34
2022-10-05T00:48:34.307Z,100274.47
2022-10-05T00:51:19.447Z,100274.97
2022-10-05T00:53:46.272Z,100270.22
2022-10-05T00:56:38.790Z,100267.03
2022-10-05T00:59:22.001Z,100259.38
2022-10-05T01:02:07.048Z,100258.56
2022-10-05T01:04:53.685Z,100260.09
2022-10-05T01:07:29.610Z,100255.31
2022-10-05T01:10:19.319Z,100263.28
2022-10-05T01:13:13.839Z,100258.16
2022-10-05T01:15:43.679Z,100260.78
2022-10-05T01:18:22.310Z,100269.41
2022-10-05T01:20:59.822Z,100265.44
2022-10-05T01:24:05.984Z,100261.97
2022-10-05T01:27:16.040Z,100258.56
2022-10-05T01:30:03.325Z,100267.13
2022-10-05T01:32:34.030Z,100262.47
2022-10-05T01:35:29.936Z,100245.53
2022-10-05T01:38:22.843Z,100245.75
2022-10-05T01:41:21.409Z,100245.28
2022-10-05T01:44:03.342Z,100240.88
2022-10-05T01:46:43.664Z,100235.88
2022-10-05T01:49:16.846Z,100233.00
2022-10-05T01:51:48.135Z,100233.25
2022-10-05T01:54:53.134Z,100235.91
2022-10-05T01:57:39.946Z,100229.50
2022-10-05T02:00:25.153Z,100220.38
2022-10-05T02:03:00.118Z,100214.78
2022-10-05T02:05:35.424Z,100217.69
2022-10-05T02:08:19.451Z,100216.44
2022-10-05T02:11:07.844Z,100212.16
2022-10-05T02:13:34.922Z,100206.34
2022-10-05T02:16:17.788Z,100210.75
2022-10-05T02:18:56.546Z,100205.97
2022-10-05T02:21:24.847Z,100220.97
2022-10-05T02:23:57.747Z,100210.69
2022-10-05T02:26:26.186Z,100213.03
2022-10-05T02:28:59.790Z,100213.56
2022-10-05T02:31:39.659Z,100204.16
2022-10-05T02:34:26.699Z,100204.13
2022-10-05T02:37:22.056Z,100208.44
2022-10-05T02:40:02.268Z,100210.56
2022-10-05T02:42:51.664Z,100213.81
2022-10-05T02:45:24.705Z,100202.03
2022-10-05T02:48:21.090Z,100195.50
2022-10-05T02:51:05.157Z,100197.00
2022-10-05T02:53:43.792Z,100188.81
2022-10-05T02:56:31.309Z,100183.00
2022-10-05T02:59:17.927Z,100182.06
2022-10-05T03:01:58.043Z,100180.53
2022-10-05T03:04:32.848Z,100185.38
2022-10-05T03:07:14.240Z,100180.13
2022-10-05T03:09:49.428Z,100186.69
2022-10-05T03:12:44.039Z,100179.75
2022-10-05T03:15:48.468Z,100175.84
2022-10-05T03:18:30.782Z,100174.09
2022-10-05T03:21:28.745Z,100181.06
2022-10-05T03:24:23.889Z,100188.09
2022-10-05T03:27:04.879Z,100175.84
2022-10-05T03:29:43.360Z,100171.91
2022-10-05T03:32:42.083Z,100170.34
2022-10-05T03:35:19.846Z,100179.31
2022-10-05T03:37:46.764Z,100174.16
2022-10-05T03:40:32.342Z,100170.03
2022-10-05T03:43:18.531Z,100167.31
2022-10-05T03:46:24.404Z,100157.06
2022-10-05T03:49:15.865Z,100161.03
2022-10-05T03:51:48.492Z,100165.06
2022-10-05T03:54:21.231Z,100156.63
2022-10-05T03:56:55.992Z,100153.72
2022-10-05T03:59:32.705Z,100156.44
2022-10-05T04:02:06.385Z,100158.81
2022-10-05T04:04:53.050Z,100148.38
2022-10-05T04:07:42.375Z,100161.44
2022-10-05T04:10:39.753Z,100151.28
2022-10-05T04:13:16.385Z,100152.25
2022-10-05T04:15:57.236Z,100155.66
2022-10-05T04:18:34.546Z,100151.88
2022-10-05T04:21:23.911Z,100165.13
2022-10-05T04:24:09.505Z,100162.47
2022-10-05T04:26:55.678Z,100165.09
2022-10-05T04:29:45.911Z,100163.63
2022-10-05T04:32:15.594Z,100168.47
2022-10-05T04:35:11.188Z,100172.22
2022-10-05T04:37:54.078Z,100168.63
2022-10-05T04:40:27.479Z,100166.97
2022-10-05T04:43:16.169Z,100168.00
2022-10-05T04:45:55.709Z,100162.69
2022-10-05T04:48:46.440Z,100163.31
2022-10-05T04:51:28.469Z,100157.88
2022-10-05T04:54:17.352Z,100166.31
2022-10-05T04:56:56.310Z,100173.13
2022-10-05T05:00:14.879Z,100167.31
2022-10-05T05:03:09.894Z,100165.63
2022-10-05T05:06:15.972Z,100164.66
2022-10-05T05:09:08.922Z,100176.56
2022-10-05T05:11:52.880Z,100181.56
2022-10-05T05:14:46.261Z,100181.31
2022-10-05T05:17:41.873Z,100186.19
2022-10-05T05:20:32.281Z,100196.38
2022-10-05T05:23:46.963Z,100192.22
2022-10-05T05:26:42.625Z,100186.78
2022-10-05T05:29:21.774Z,100183.81
2022-10-05T05:32:23.782Z,100194.34
2022-10-05T05:35:11.814Z,100203.50
2022-10-05T05:37:58.986Z,100207.50
2022-10-05T05:40:32.235Z,100196.06
2022-10-05T05:43:03.175Z,100199.25
2022-10-05T05:45:46.483Z,100202.88
2022-10-05T05:48:42.637Z,100205.88
2022-10-05T05:51:25.557Z,100208.00
2022-10-05T05:54:07.357Z,100203.31
2022-10-05T05:56:40.281Z,100200.44
2022-10-05T05:59:29.225Z,100205.22
2022-10-05T06:02:08.441Z,100211.34
2022-10-05T06:04:46.754Z,100205.38
2022-10-05T06:07:19.110Z,100221.91
2022-10-05T06:10:19.769Z,100215.94
2022-10-05T06:13:04.986Z,100228.28
2022-10-05T06:15:47.099Z,100228.09
2022-10-05T06:18:19.987Z,100226.84
2022-10-05T06:20:58.637Z,100222.97
2022-10-05T06:23:47.897Z,100226.16
2022-10-05T06:26:26.969Z,100235.63
2022-10-05T06:29:02.668Z,100234.66
2022-10-05T06:31:49.714Z,100235.22
2022-10-05T06:34:36.070Z,100245.50
2022-10-05T06:37:12.909Z,100240.06
2022-10-05T06:40:00.914Z,100243.56
2022-10-05T06:42:50.820Z,100245.69
2022-10-05T06:45:53.778Z,100246.56
2022-10-05T06:48:55.302Z,100232.50
2022-10-05T06:52:08.014Z,100228.59
2022-10-05T06:54:51.959Z,100234.63
2022-10-05T06:58:01.700Z,100239.91
2022-10-05T07:00:35.659Z,100240.47
2022-10-05T07:03:12.275Z,100245.50
2022-10-05T07:05:52.501Z,100251.03
2022-10-05T07:08:43.264Z,100259.41
2022-10-05T07:11:38.552Z,100260.97
2022-10-05T07:14:05.820Z,100255.72
2022-10-05T07:16:47.766Z,100254.91
2022-10-05T07:19:28.272Z,100247.53
2022-10-05T07:22:13.968Z,100244.13
2022-10-05T07:24:56.273Z,100246.72
2022-10-05T07:27:27.317Z,100257.75
2022-10-05T07:30:07.990Z,100254.81
2022-10-05T07:32:56.421Z,100257.16
2022-10-05T07:35:50.643Z,100256.03
2022-10-05T07:38:32.564Z,100259.94
2022-10-05T07:41:09.100Z,100258.03
2022-10-05T07:44:02.166Z,100260.59
2022-10-05T07:46:46.950Z,100265.81
2022-10-05T07:49:27.017Z,100271.53
2022-10-05T07:52:06.630Z,100266.47
2022-10-05T07:54:42.236Z,100272.50
2022-10-05T07:57:38.508Z,100262.44
2022-10-05T08:00:13.271Z,100256.00
2022-10-05T08:03:11.187Z,100264.38
2022-10-05T08:05:42.410Z,100260.63
2022-10-05T08:08:30.118Z,100254.50
2022-10-05T08:11:07.469Z,100266.81
2022-10-05T08:13:52.542Z,100249.75
2022-10-05T08:16:19.838Z,100257.59
2022-10-05T08:19:15.279Z,100241.97
2022-10-05T08:21:48.114Z,100244.47
2022-10-05T08:24:37.296Z,100244.44
2022-10-05T08:27:24.489Z,100251.56
2022-10-05T08:30:02.098Z,100243.38
2022-10-05T08:32:58.792Z,100247.19
2022-10-05T08:35:42.671Z,100242.06
2022-10-05T08:38:25.034Z,100244.88
2022-10-05T08:41:16.245Z,100235.59
2022-10-05T08:43:51.819Z,100240.50
2022-10-05T08:46:29.392Z,100229.00
2022-10-05T08:49:35.499Z,100229.00
2022-10-05T08:52:24.675Z,100237.25
2022-10-05T08:55:09.955Z,100225.28
2022-10-05T08:58:07.012Z,100217.78
2022-10-05T09:00:54.368Z,100214.78
2022-10-05T09:03:45.932Z,100214.63
2022-10-05T09:06:39.899Z,100216.25
2022-10-05T09:09:32.190Z,100216.25
2022-10-05T09:12:37.116Z,100219.59
2022-10-05T09:15:45.354Z,100221.38
2022-10-05T09:18:52.109Z,100220.78
2022-10-05T09:21:40.370Z,100217.47
2022-10-05T09:24:10.080Z,100217.63
2022-10-05T09:26:44.044Z,100212.22
2022-10-05T09:29:19.909Z,100211.06
2022-10-05T09:32:16.671Z,100210.97
2022-10-05T09:34:58.461Z,100220.88
2022-10-05T09:37:35.115Z,100216.56
2022-10-05T09:40:16.922Z,100220.97
2022-10-05T09:42:58.617Z,100213.25
2022-10-05T09:45:56.208Z,100210.81
2022-10-05T09:48:39.630Z,100217.84
2022-10-05T09:51:38.653Z,100219.13
2022-10-05T09:54:14.141Z,100214.06
2022-10-05T09:56:46.812Z,100222.88
2022-10-05T09:59:45.896Z,100214.25
2022-10-05T10:02:44.600Z,100212.56
2022-10-05T10:05:33.670Z,100202.19
2022-10-05T10:08:17.690Z,100202.47
2022-10-05T10:11:21.844Z,100208.13
2022-10-05T10:14:30.381Z,100205.41
2022-10-05T10:17:08.801Z,100197.66
2022-10-05T10:20:01.969Z,100198.16
2022-10-05T10:22:55.577Z,100200.81
2022-10-05T10:25:56.008Z,100189.13
2022-10-05T10:28:41.053Z,100188.84
2022-10-05T10:31:34.704Z,100190.41
2022-10-05T10:34:23.057Z,100198.84
2022-10-05T10:37:14.295Z,100198.84
2022-10-05T10:40:08.651Z,100194.31
2022-10-05T10:43:14.246Z,100200.59
2022-10-05T10:46:02.190Z,100189.63
2022-10-05T10:48:29.069Z,100189.97
2022-10-05T10:51:18.021Z,100186.91
2022-10-05T10:54:14.355Z,100191.00
2022-10-05T10:57:02.600Z,100181.19
2022-10-05T10:59:47.653Z,100177.19
2022-10-05T11:02:32.578Z,100174.72
2022-10-05T11:05:14.223Z,100174.56
2022-10-05T11:08:01.193Z,100174.63
2022-10-05T11:10:33.630Z,100172.78
2022-10-05T11:13:31.047Z,100168.59
2022-10-05T11:16:31.204Z,100160.81
2022-10-05T11:19:16.755Z,100157.72
2022-10-05T11:22:13.235Z,100157.91
2022-10-05T11:25:22.416Z,100150.59
2022-10-05T11:28:14.982Z,100152.00
2022-10-05T11:31:10.865Z,100151.38
2022-10-05T11:34:08.003Z,100152.81
2022-10-05T11:36:52.566Z,100152.69
2022-10-05T11:39:44.530Z,100146.94
2022-10-05T11:42:30.168Z,100143.94
2022-10-05T11:45:18.179Z,100141.47
2022-10-05T11:48:08.129Z,100127.88
2022-10-05T11:50:57.408Z,100124.63
2022-10-05T11:53:33.583Z,100124.78
2022-10-05T11:56:27.024Z,100123.88
2022-10-05T11:59:02.190Z,100115.13
2022-10-05T12:01:41.892Z,100117.16
2022-10-05T12:04:29.834Z,100115.75
2022-10-05T12:07:14.612Z,100112.59
2022-10-05T12:10:20.489Z,100116.19
2022-10-05T12:12:56.704Z,100114.91
2022-10-05T12:15:29.646Z,100118.22
2022-10-05T12:18:13.203Z,100110.84
2022-10-05T12:21:01.454Z,100110.19
2022-10-05T12:23:37.468Z,100109.72
2022-10-05T12:26:14.529Z,100112.47
2022-10-05T12:28:47.397Z,100112.94
2022-10-05T12:31:50.352Z,100109.00
2022-10-05T12:34:51.807Z,100099.63
2022-10-05T12:37:36.795Z,100100.03
2022-10-05T12:40:14.492Z,100094.38
2022-10-05T12:42:50.850Z,100099.25
2022-10-05T12:45:43.812Z,100101.75
2022-10-05T12:48:29.367Z,100089.84
2022-10-05T12:51:19.417Z,100086.09
2022-10-05T12:54:03.197Z,100087.78
2022-10-05T12:56:42.660Z,100092.16
2022-10-05T12:59:31.156Z,100080.09
2022-10-05T13:02:06.781Z,100080.81
2022-10-05T13:04:52.276Z,100085.94
2022-10-05T13:07:35.513Z,100082.66
2022-10-05T13:10:11.759Z,100076.78
2022-10-05T13:13:26.238Z,100073.63
2022-10-05T13:16:04.693Z,100074.38
2022-10-05T13:18:51.772Z,100071.22
2022-10-05T13:21:33.273Z,100069.91
2022-10-05T13:24:11.825Z,100068.50
2022-10-05T13:26:46.231Z,100074.25
2022-10-05T13:29:21.685Z,100068.94
2022-10-05T13:31:56.154Z,100070.94
2022-10-05T13:34:25.605Z,100075.28
2022-10-05T13:37:33.756Z,100072.31
2022-10-05T13:40:03.279Z,100075.09
2022-10-05T13:42:39.759Z,100073.22
2022-10-05T13:45:15.224Z,100070.81
2022-10-05T13:48:17.666Z,100076.13
2022-10-05T13:51:05.206Z,100071.28
2022-10-05T13:53:49.609Z,100071.72
2022-10-05T13:56:20.745Z,100067.28
2022-10-05T13:59:18.189Z,100068.06
2022-10-05T14:01:56.768Z,100060.88
2022-10-05T14:04:49.225Z,100066.19
2022-10-05T14:07:36.297Z,100059.75
2022-10-05T14:10:11.672Z,100051.44
2022-10-05T14:12:44.263Z,100052.19
2022-10-05T14:15:56.336Z,100055.34
2022-10-05T14:18:24.138Z,100055.34
2022-10-05T14:21:09.174Z,100040.50
2022-10-05T14:23:36.212Z,100049.72
2022-10-05T14:26:04.523Z,100048.16
2022-10-05T14:28:35.624Z,100048.91
2022-10-05T14:31:15.025Z,100045.47
2022-10-05T14:33:42.258Z,100038.25
2022-10-05T14:36:15.594Z,100041.28
2022-10-05T14:39:01.510Z,100043.94
2022-10-05T14:41:34.369Z,100035.59
2022-10-05T14:44:13.194Z,100041.72
2022-10-05T14:46:53.101Z,100040.94
2022-10-05T14:49:32.076Z,100036.72
2022-10-05T14:51:58.912Z,100029.06
2022-10-05T14:54:28.600Z,100027.94
2022-10-05T14:57:09.680Z,100020.25
2022-10-05T14:59:42.225Z,100017.94
2022-10-05T15:02:33.342Z,100017.94
2022-10-05T15:05:28.171Z,100019.81
2022-10-05T15:08:01.613Z,100014.50
2022-10-05T15:10:28.384Z,100020.13
2022-10-05T15:13:00.685Z,100019.34
2022-10-05T15:15:39.473Z,100014.38
2022-10-05T15:18:27.199Z,100009.69
2022-10-05T15:21:15.165Z,100011.25
2022-10-05T15:23:52.581Z,100011.13
2022-10-05T15:26:56.727Z,100010.34
2022-10-05T15:29:53.220Z,100015.56
2022-10-05T15:32:37.990Z,100024.19
2022-10-05T15:35:49.218Z,100027.50
2022-10-05T15:38:25.953Z,100028.63
2022-10-05T15:41:22.991Z,100023.94
2022-10-05T15:44:01.076Z,100031.50
2022-10-05T15:46:52.561Z,100022.28
2022-10-05T15:49:43.840Z,100022.16
2022-10-05T15:52:45.650Z,100016.69
2022-10-05T15:55:27.828Z,100020.00
2022-10-05T15:57:57.570Z,100021.44
2022-10-05T16:00:26.525Z,100018.34
2022-10-05T16:03:12.071Z,100026.50
2022-10-05T16:05:45.700Z,100022.63
2022-10-05T16:08:34.795Z,100019.84
2022-10-05T16:11:04.869Z,100021.25
2022-10-05T16:13:44.601Z,100023.44
2022-10-05T16:16:25.074Z,100023.00
2022-10-05T16:19:13.841Z,100021.47
2022-10-05T16:21:48.507Z,100026.97
2022-10-05T16:24:18.174Z,100031.03
2022-10-05T16:26:59.657Z,100024.81
2022-10-05T16:29:55.448Z,100033.44
2022-10-05T16:32:26.355Z,100027.22
2022-10-05T16:35:21.769Z,100039.59
2022-10-05T16:38:15.015Z,100034.63
2022-10-05T16:41:09.790Z,100030.25
2022-10-05T16:43:42.928Z,100048.41
2022-10-05T16:46:40.754Z,100044.84
2022-10-05T16:49:22.481Z,100041.41
2022-10-05T16:51:58.265Z,100051.91
2022-10-05T16:54:43.106Z,100043.59
2022-10-05T16:57:26.932Z,100049.59
2022-10-05T17:00:16.069Z,100051.97
2022-10-05T17:02:52.326Z,100040.38
2022-10-05T17:05:53.080Z,100058.56
2022-10-05T17:08:44.701Z,100060.28
2022-10-05T17:11:23.428Z,100061.56
2022-10-05T17:13:56.239Z,100055.31
2022-10-05T17:16:36.099Z,100064.41
2022-10-05T17:19:33.344Z,100057.38
2022-10-05T17:22:21.521Z,100061.47
2022-10-05T17:25:06.534Z,100060.34
2022-10-05T17:27:53.997Z,100065.03
2022-10-05T17:30:38.509Z,100071.31
2022-10-05T17:33:22.562Z,100064.47
2022-10-05T17:36:01.279Z,100070.25
2022-10-05T17:38:31.098Z,100073.88
2022-10-05T17:41:00.853Z,100071.50
2022-10-05T17:43:29.897Z,100070.25
2022-10-05T17:46:10.193Z,100075.41
2022-10-05T17:49:06.737Z,100073.56
2022-10-05T17:51:33.559Z,100078.09
2022-10-05T17:54:21.164Z,100073.28
2022-10-05T17:56:48.845Z,100071.88
2022-10-05T17:59:53.697Z,100078.13
2022-10-05T18:02:36.308Z,100078.91
2022-10-05T18:05:03.952Z,100079.22
2022-10-05T18:07:35.851Z,100074.22
2022-10-05T18:10:12.079Z,100077.78
2022-10-05T18:12:46.157Z,100086.22
2022-10-05T18:15:37.558Z,100089.34
2022-10-05T18:18:35.290Z,100087.44
2022-10-05T18:21:22.766Z,100087.78
2022-10-05T18:23:55.405Z,100086.38
2022-10-05T18:26:34.787Z,100093.38
2022-10-05T18:29:02.007Z,100089.78
2022-10-05T18:31:42.650Z,100089.97
2022-10-05T18:34:21.359Z,100094.47
2022-10-05T18:37:07.523Z,100092.75
2022-10-05T18:39:44.634Z,100091.66
2022-10-05T18:42:48.433Z,100082.91
2022-10-05T18:45:36.609Z,100079.00
2022-10-05T18:48:22.761Z,100072.44
2022-10-05T18:51:03.529Z,100082.13
2022-10-05T18:53:47.261Z,100084.94
2022-10-05T18:56:43.567Z,100083.66
2022-10-05T18:59:40.177Z,100082.56
2022-10-05T19:02:44.224Z,100086.16
2022-10-05T19:05:53.424Z,100088.81
2022-10-05T19:08:51.865Z,100090.66
2022-10-05T19:11:48.618Z,100082.06
2022-10-05T19:14:37.179Z,100088.13
2022-10-05T19:17:25.909Z,100090.94
2022-10-05T19:20:04.333Z,100089.06
2022-10-05T19:22:34.313Z,100090.00
2022-10-05T19:25:38.387Z,100095.31
2022-10-05T19:28:38.712Z,100096.97
2022-10-05T19:31:27.901Z,100102.28
2022-10-05T19:34:39.140Z,100099.28
2022-10-05T19:37:13.684Z,100110.19
2022-10-05T19:39:49.885Z,100104.41
2022-10-05T19:42:39.133Z,100103.78
2022-10-05T19:45:09.314Z,100112.06
2022-10-05T19:48:04.198Z,100103.63
2022-10-05T19:50:37.014Z,100115.63
2022-10-05T19:53:11.835Z,100112.78
2022-10-05T19:55:41.736Z,100122.41
2022-10-05T19:58:27.111Z,100115.56
2022-10-05T20:01:00.107Z,100123.03
2022-10-05T20:03:31.496Z,100123.66
2022-10-05T20:06:04.127Z,100129.56
2022-10-05T20:08:46.306Z,100130.78
2022-10-05T20:11:21.928Z,100133.25
2022-10-05T20:13:55.233Z,100139.66
2022-10-05T20:16:25.647Z,100133.09
2022-10-05T20:18:53.362Z,100133.91
2022-10-05T20:21:39.013Z,100136.53
2022-10-05T20:24:27.234Z,100136.63
2022-10-05T20:26:57.443Z,100145.19
2022-10-05T20:29:24.182Z,100150.13
2022-10-05T20:31:51.035Z,100145.16
2022-10-05T20:34:17.882Z,100158.22
2022-10-05T20:36:44.873Z,100154.13
2022-10-05T20:39:12.045Z,100163.44
2022-10-05T20:41:38.883Z,100159.22
2022-10-05T20:44:05.676Z,100158.13
2022-10-05T20:46:32.579Z,100172.19
2022-10-05T20:48:59.382Z,100173.38
2022-10-05T20:51:26.339Z,100167.72
2022-10-05T20:53:53.155Z,100175.16
2022-10-05T20:56:19.906Z,100173.28
2022-10-05T20:58:46.727Z,100182.25
2022-10-05T21:01:13.536Z,100173.72
2022-10-05T21:03:40.377Z,100176.19
2022-10-05T21:06:07.495Z,100177.56
2022-10-05T21:08:34.399Z,100173.44
2022-10-05T21:11:01.165Z,100181.88
2022-10-05T21:13:27.957Z,100181.38
2022-10-05T21:15:54.761Z,100181.50
2022-10-05T21:18:21.586Z,100179.47
2022-10-05T21:20:48.500Z,100187.69
2022-10-05T21:23:15.409Z,100180.81
2022-10-05T21:25:42.159Z,100184.19
2022-10-05T21:28:09.027Z,100186.81
2022-10-05T21:30:35.969Z,100190.72
2022-10-05T21:33:02.699Z,100197.09
2022-10-05T21:35:29.479Z,100188.91
2022-10-05T21:37:56.286Z,100192.78
2022-10-05T21:40:23.096Z,100196.53
2022-10-05T21:42:49.859Z,100196.06
2022-10-05T21:45:16.818Z,100200.84
2022-10-05T21:47:43.580Z,100194.66
2022-10-05T21:50:10.561Z,100194.66
2022-10-05T21:52:37.398Z,100199.94
2022-10-05T21:55:05.875Z,100198.97
2022-10-05T21:57:34.653Z,100190.03
2022-10-05T22:00:01.673Z,100190.16
2022-10-05T22:02:33.284Z,100187.31
2022-10-05T22:05:00.264Z,100193.84
2022-10-05T22:07:28.231Z,100192.47
2022-10-05T22:09:55.353Z,100190.03
2022-10-05T22:12:22.431Z,100187.69
2022-10-05T22:14:49.391Z,100185.94
2022-10-05T22:17:27.928Z,100191.50
2022-10-05T22:19:55.815Z,100179.38
2022-10-05T22:22:22.765Z,100177.81
2022-10-05T22:24:50.323Z,100184.47
2022-10-05T22:27:17.436Z,100181.31
2022-10-05T22:29:44.524Z,100181.31
2022-10-05T22:32:11.414Z,100184.44
2022-10-05T22:34:38.231Z,100188.31
2022-10-05T22:37:06.555Z,100190.56
2022-10-05T22:39:33.334Z,100187.59
2022-10-05T22:42:00.055Z,100190.81
2022-10-05T22:44:27.034Z,100191.28
2022-10-05T22:46:53.818Z,100189.72
2022-10-05T22:49:20.757Z,100194.22
2022-10-05T22:51:47.598Z,100195.88
2022-10-05T22:54:14.406Z,100200.66
2022-10-05T22:56:41.158Z,100206.09
2022-10-05T22:59:08.028Z,100207.72
2022-10-05T23:01:34.935Z,100213.31
2022-10-05T23:04:02.137Z,100209.81
2022-10-05T23:06:30.345Z,100209.50
2022-10-05T23:08:57.391Z,100212.78
2022-10-05T23:11:27.354Z,100210.94
2022-10-05T23:13:55.819Z,100214.03
2022-10-05T23:16:25.671Z,100212.28
2022-10-05T23:18:54.071Z,100214.22
2022-10-05T23:21:23.138Z,100206.88
2022-10-05T23:23:50.138Z,100214.28
2022-10-05T23:26:19.163Z,100214.78
2022-10-05T23:28:46.049Z,100207.19
2022-10-05T23:31:16.186Z,100212.19
2022-10-05T23:33:43.642Z,100208.50
2022-10-05T23:36:19.511Z,100208.19
2022-10-05T23:38:47.161Z,100208.19
2022-10-05T23:41:14.191Z,100212.16
2022-10-05T23:43:40.979Z,100213.03
2022-10-05T23:46:09.014Z,100215.66
2022-10-05T23:48:37.091Z,100222.25
2022-10-05T23:51:05.561Z,100214.81
2022-10-05T23:53:32.538Z,100224.19
2022-10-05T23:55:59.819Z,100226.88
2022-10-05T23:58:27.376Z,100223.56
